Time;durP1;ratioP1;P1;durP2;ratioP2;P2;SDS_P1;SDS_P2;PMS_P1;PMS_P2;Temp;Humidity;BMP_temperature;BMP_pressure;BME280_temperature;BME280_humidity;BME280_pressure;Samples;Min_cycle;Max_cycle;Signal;HPM_P1;HPM_P2
2022/04/22 13:54:26;;;;;;;8.40;7.80;;;21.10;46.00;;;;;;5022951;28;20497;-76
2022/04/22 13:56:52;;;;;;;8.33;7.73;;;21.00;46.20;;;;;;5027044;28;20518;-76
2022/04/22 13:59:17;;;;;;;8.70;8.00;;;21.10;46.60;;;;;;5043015;28;199893;-77
2022/04/22 14:01:43;;;;;;;7.87;7.27;;;21.10;46.60;;;;;;5065957;28;20190;-77
2022/04/22 14:04:09;;;;;;;7.77;7.17;;;21.00;47.00;;;;;;5057159;28;20190;-78
2022/04/22 14:06:34;;;;;;;7.63;7.13;;;20.90;47.40;;;;;;5048537;28;20652;-77
2022/04/22 14:09:01;;;;;;;6.70;6.20;;;20.80;47.60;;;;;;5071843;28;20552;-76
2022/04/22 14:11:28;;;;;;;7.37;6.87;;;20.80;47.80;;;;;;5060128;28;20200;-76
2022/04/22 14:13:54;;;;;;;7.00;6.40;;;20.70;48.00;;;;;;5066662;28;20440;-76
2022/04/22 14:16:20;;;;;;;6.63;6.23;;;20.80;48.10;;;;;;5082708;28;20927;-77
2022/04/22 14:18:46;;;;;;;6.93;6.43;;;20.80;48.10;;;;;;5083996;28;20195;-77
2022/04/22 14:21:11;;;;;;;72.50;70.10;;;20.80;48.20;;;;;;5067933;28;20326;-74
2022/04/22 14:23:37;;;;;;;6.90;6.40;;;20.80;49.20;;;;;;5066713;28;20171;-74
2022/04/22 14:26:03;;;;;;;7.17;6.60;;;20.80;48.40;;;;;;5068061;28;20187;-73
2022/04/22 14:28:29;;;;;;;6.60;6.10;;;20.70;48.60;;;;;;5068047;28;20186;-73
2022/04/22 14:30:54;;;;;;;6.90;6.50;;;20.90;48.50;;;;;;5066946;28;20223;-72
2022/04/22 14:33:21;;;;;;;7.10;6.60;;;20.80;48.70;;;;;;5067976;28;20182;-76
2022/04/22 14:35:48;;;;;;;6.40;6.00;;;20.80;48.80;;;;;;5083686;28;20195;-72
2022/04/22 14:38:14;;;;;;;6.20;5.80;;;20.80;48.80;;;;;;5067510;28;20401;-74
2022/04/22 14:40:40;;;;;;;6.33;5.90;;;21.00;48.50;;;;;;5071179;28;21056;-73
2022/04/22 14:43:06;;;;;;;6.47;6.03;;;21.00;48.50;;;;;;5081670;28;20194;-74
2022/04/22 14:45:36;;;;;;;6.27;5.87;;;20.90;48.60;;;;;;5066194;28;20209;-74
2022/04/22 14:48:02;;;;;;;6.17;5.80;;;20.80;49.00;;;;;;5067533;28;20752;-70
2022/04/22 14:54:33;;;;;;;4.00;3.70;;;21.10;51.40;;;;;;5055813;27;20582;-62
2022/04/22 14:56:59;;;;;;;4.23;3.83;;;21.00;48.90;;;;;;5021329;28;20461;-65
2022/04/22 14:59:25;;;;;;;3.90;3.60;;;20.90;49.10;;;;;;5068482;28;20475;-61
2022/04/22 15:01:50;;;;;;;4.23;3.83;;;20.90;49.20;;;;;;5087805;28;20305;-64
2022/04/22 15:04:16;;;;;;;4.00;3.60;;;20.90;49.20;;;;;;5088618;28;20510;-63
2022/04/22 15:06:42;;;;;;;6.83;3.57;;;20.90;49.20;;;;;;5089359;28;20726;-64
2022/04/22 15:09:07;;;;;;;3.67;3.47;;;20.90;49.20;;;;;;5089483;28;20198;-63
2022/04/22 15:11:33;;;;;;;4.00;3.70;;;20.90;49.10;;;;;;5089384;28;20551;-62
2022/04/22 15:14:04;;;;;;;4.10;3.77;;;20.90;49.10;;;;;;5083074;28;20193;-74
2022/04/22 15:16:30;;;;;;;3.60;3.40;;;20.80;49.10;;;;;;5083673;28;20447;-62
2022/04/22 15:24:25;;;;;;;3.43;3.23;;;20.90;49.10;;;;;;5089516;28;20396;-62
2022/04/22 15:26:54;;;;;;;3.37;3.17;;;20.90;49.10;;;;;;5089074;28;20784;-62
2022/04/22 15:29:20;;;;;;;3.30;3.10;;;20.90;49.10;;;;;;5088995;28;20178;-62
2022/04/22 15:31:46;;;;;;;3.00;2.80;;;20.90;49.00;;;;;;5088012;28;20423;-64
2022/04/22 15:34:12;;;;;;;3.43;3.23;;;20.90;49.00;;;;;;5088937;28;20793;-64
2022/04/22 15:36:38;;;;;;;3.30;3.10;;;20.90;49.00;;;;;;5088871;28;20190;-62
2022/04/22 15:39:04;;;;;;;3.00;2.80;;;20.90;48.90;;;;;;5088927;28;20864;-63
2022/04/22 15:41:35;;;;;;;3.00;2.80;;;20.90;48.90;;;;;;5087780;28;20405;-62
2022/04/22 15:44:03;;;;;;;2.80;2.60;;;20.90;48.90;;;;;;5087841;28;21160;-63
2022/04/22 15:46:28;;;;;;;2.70;2.50;;;20.90;48.90;;;;;;5088749;28;20416;-63
2022/04/22 15:48:55;;;;;;;2.90;2.70;;;20.90;48.90;;;;;;5088764;28;20892;-63
2022/04/22 15:51:24;;;;;;;3.00;2.80;;;20.90;49.00;;;;;;5088648;28;20181;-63
2022/04/22 15:53:51;;;;;;;2.30;2.20;;;20.90;48.90;;;;;;5088291;28;20469;-63
2022/04/22 15:56:18;;;;;;;3.30;3.10;;;20.90;48.80;;;;;;5088455;28;20420;-63
2022/04/22 15:58:45;;;;;;;2.50;2.40;;;20.90;48.90;;;;;;5088496;28;20401;-63
2022/04/22 16:01:15;;;;;;;2.30;2.10;;;20.90;48.80;;;;;;5088335;28;20406;-63
2022/04/22 16:03:51;;;;;;;2.50;2.40;;;20.90;48.80;;;;;;5067545;28;20420;-63
2022/04/22 16:06:20;;;;;;;2.57;2.40;;;20.90;48.80;;;;;;5054386;28;20894;-63
2022/04/22 16:08:47;;;;;;;2.30;2.20;;;20.90;48.90;;;;;;5054781;28;20409;-63
2022/04/22 16:16:44;;;;;;;2.50;2.30;;;20.90;48.90;;;;;;5054871;28;20421;-63
2022/04/22 16:19:11;;;;;;;2.30;2.20;;;20.90;48.90;;;;;;5054591;28;20409;-63
2022/04/22 16:21:37;;;;;;;2.70;2.50;;;20.80;49.00;;;;;;5054569;28;20425;-62
2022/04/22 16:24:04;;;;;;;2.50;2.40;;;20.70;49.10;;;;;;5054434;28;20417;-62
2022/04/22 16:26:31;;;;;;;2.90;2.70;;;20.70;49.10;;;;;;5053234;28;20928;-62
2022/04/22 16:28:57;;;;;;;2.27;2.17;;;20.70;49.10;;;;;;5054345;28;20872;-62
2022/04/22 16:31:24;;;;;;;2.27;2.07;;;20.70;49.30;;;;;;5054783;28;20504;-63
2022/04/22 16:33:50;;;;;;;2.30;2.20;;;20.70;49.30;;;;;;5066745;28;20813;-63
2022/04/22 16:36:17;;;;;;;5.90;5.60;;;20.70;49.20;;;;;;5064155;28;21157;-60
2022/04/22 16:38:45;;;;;;;6.53;4.93;;;20.90;48.40;;;;;;5061158;28;20441;-61
